Wind From: 11-12-2017 12:03 Until: 12-12-2017 06:00 warning for: Wind Level: Orange info button

Power and phone distribution networks may be disrupted for relatively long periods., Roofs and chimneys can be damaged. , Tree branches may break. , Vehicles can be deported. , Traffic may be disrupted, particularly on secondary roads in forest areas. Limit your trips. , Limit your speed in highway driving, especially if you drive a vehicle or hitch sensitive to wind. , Do not go for walks in forests or along the coast., In town, be vigilant against possible falling objects., Do not work on roofs and do not touch any electrical line fallen on the ground., Store or secure sensitive objects to wind or likely to be damaged., Always install power generators outside buildings. 


Meteo18 Weather Cam more information Meteo18 Weather Cam


Thunder radar more information blitzortung!


Rain radar more information rain snow radar


Visit our other weather sites:

Template documentation
and downloads

And another site



Weather Underground History page Text

Daily Summary for September 21, 2017 Units:  Metric    English   Both
« Previous Day
Next Day »
Daily Weekly Monthly Yearly Custom
  High: Low: Average:
Temperature: 21.9 °C 6.7 °C 13.4 °C
Dew Point: 11.0 °C 6.0 °C 8.5 °C
Humidity: 96 % 39 % 76 %
Wind Speed: 9.7 km/h 0.0 km/h 0.9 km/h
Wind Gust: 16.1 km/h - -
Wind:- - SSE
Pressure: 1021.6 hPa 1017.8 hPa -
Precipitation: 0.3 mm    
Historical Graphs
 
 
Tabular Data for September 21, 2017
Time Temperature Dew Point Pressure Wind Wind Speed Wind Gust Humidity Rainfall Rate (Hourly)
00:02 8.6 °C 7.4 °C 1021.6 hPa Calm     92 % 0.0 mm
00:12 8.4 °C 7.3 °C 1021.6 hPa Calm     93 % 0.0 mm
00:17 8.4 °C 7.3 °C 1021.6 hPa Calm     93 % 0.0 mm
00:22 8.3 °C 7.2 °C 1021.6 hPa Calm     93 % 0.0 mm
00:27 8.3 °C 7.2 °C 1021.6 hPa Calm     93 % 0.0 mm
00:32 8.3 °C 7.2 °C 1021.6 hPa Calm     93 % 0.0 mm
00:37 8.4 °C 7.3 °C 1021.6 hPa Calm     93 % 0.0 mm
00:42 8.3 °C 7.1 °C 1021.6 hPa Calm     92 % 0.0 mm
00:52 8.2 °C 7.1 °C 1021.6 hPa Calm     93 % 0.0 mm
00:57 8.2 °C 7.1 °C 1021.6 hPa Calm     93 % 0.0 mm
01:02 8.2 °C 7.1 °C 1021.6 hPa Calm     93 % 0.0 mm
01:12 8.2 °C 7.1 °C 1021.6 hPa Calm     93 % 0.0 mm
01:17 8.2 °C 7.1 °C 1021.2 hPa Calm     93 % 0.0 mm
01:22 8.2 °C 7.1 °C 1021.2 hPa Calm     93 % 0.0 mm
01:32 8.1 °C 7.0 °C 1021.2 hPa Calm     93 % 0.0 mm
01:37 8.1 °C 7.0 °C 1021.2 hPa Calm     93 % 0.0 mm
01:42 7.9 °C 6.8 °C 1021.2 hPa Calm     93 % 0.0 mm
01:47 7.9 °C 6.8 °C 1021.2 hPa Calm     93 % 0.0 mm
01:52 7.9 °C 6.8 °C 1021.2 hPa Calm     93 % 0.0 mm
01:57 7.9 °C 6.8 °C 1021.2 hPa Calm     93 % 0.0 mm
02:02 7.9 °C 7.0 °C 1021.2 hPa Calm     94 % 0.0 mm
02:07 8.1 °C 7.2 °C 1021.2 hPa Calm     94 % 0.0 mm
02:12 8.0 °C 6.9 °C 1021.2 hPa Calm     93 % 0.0 mm
02:17 7.8 °C 6.7 °C 1021.2 hPa Calm     93 % 0.0 mm
02:22 7.7 °C 6.6 °C 1021.2 hPa Calm     93 % 0.0 mm
02:32 7.7 °C 6.8 °C 1021.2 hPa Calm     94 % 0.0 mm
02:42 7.5 °C 6.4 °C 1021.2 hPa Calm     93 % 0.0 mm
02:47 7.3 °C 6.4 °C 1021.2 hPa Calm     94 % 0.0 mm
02:52 7.3 °C 6.4 °C 1021.2 hPa Calm     94 % 0.0 mm
03:02 7.3 °C 6.4 °C 1020.9 hPa Calm     94 % 0.0 mm
03:12 7.5 °C 6.8 °C 1020.9 hPa Calm     95 % 0.0 mm
03:22 7.6 °C 6.9 °C 1020.9 hPa Calm     95 % 0.0 mm
03:32 7.6 °C 6.9 °C 1020.9 hPa Calm     95 % 0.0 mm
03:42 7.8 °C 7.0 °C 1020.9 hPa Calm     95 % 0.0 mm
03:52 7.3 °C 6.4 °C 1020.9 hPa Calm     94 % 0.0 mm
03:57 7.2 °C 6.5 °C 1020.9 hPa Calm     95 % 0.0 mm
04:02 7.2 °C 6.5 °C 1020.9 hPa Calm     95 % 0.0 mm
04:12 7.3 °C 6.6 °C 1020.5 hPa Calm     95 % 0.0 mm
04:17 7.4 °C 6.7 °C 1020.5 hPa Calm     95 % 0.0 mm
04:22 7.3 °C 6.6 °C 1020.5 hPa Calm     95 % 0.0 mm
04:27 7.2 °C 6.5 °C 1020.5 hPa Calm     95 % 0.0 mm
04:32 7.2 °C 6.5 °C 1020.5 hPa Calm     95 % 0.0 mm
04:42 7.0 °C 6.3 °C 1020.5 hPa Calm     95 % 0.0 mm
04:52 7.0 °C 6.3 °C 1020.5 hPa Calm     95 % 0.0 mm
05:02 7.2 °C 6.6 °C 1020.2 hPa Calm     96 % 0.0 mm
05:12 7.1 °C 6.4 °C 1020.2 hPa Calm     95 % 0.0 mm
05:22 7.0 °C 6.3 °C 1020.2 hPa Calm     95 % 0.0 mm
05:32 6.8 °C 6.1 °C 1020.2 hPa Calm     95 % 0.0 mm
05:42 6.8 °C 6.1 °C 1020.2 hPa Calm     95 % 0.0 mm
05:52 7.1 °C 6.5 °C 1020.2 hPa Calm     96 % 0.0 mm
05:57 7.2 °C 6.6 °C 1019.9 hPa Calm     96 % 0.0 mm
06:02 7.1 °C 6.4 °C 1019.9 hPa Calm     95 % 0.0 mm
06:12 7.1 °C 6.5 °C 1019.9 hPa Calm     96 % 0.3 mm
06:17 7.1 °C 6.5 °C 1019.9 hPa Calm     96 % 0.3 mm
06:22 7.1 °C 6.4 °C 1019.9 hPa Calm     95 % 0.3 mm
06:32 7.1 °C 6.4 °C 1019.9 hPa Calm     95 % 0.3 mm
06:42 7.1 °C 6.5 °C 1019.9 hPa Calm     96 % 0.3 mm
06:52 6.9 °C 6.2 °C 1019.9 hPa Calm     95 % 0.3 mm
06:57 6.8 °C 6.1 °C 1019.9 hPa Calm     95 % 0.3 mm
07:02 6.8 °C 6.1 °C 1019.9 hPa Calm     95 % 0.3 mm
07:12 6.8 °C 6.1 °C 1019.9 hPa Calm     95 % 0.0 mm
07:17 6.8 °C 6.2 °C 1019.9 hPa Calm     96 % 0.0 mm
07:22 6.8 °C 6.1 °C 1019.9 hPa Calm     95 % 0.0 mm
07:27 6.9 °C 6.3 °C 1019.9 hPa Calm     96 % 0.0 mm
07:32 6.8 °C 6.1 °C 1019.9 hPa Calm     95 % 0.0 mm
07:42 6.7 °C 6.0 °C 1019.9 hPa Calm     95 % 0.0 mm
07:52 6.7 °C 6.0 °C 1019.9 hPa Calm     95 % 0.0 mm
08:02 6.9 °C 6.2 °C 1019.9 hPa Calm     95 % 0.0 mm
08:12 6.9 °C 6.2 °C 1019.9 hPa Calm     95 % 0.0 mm
08:17 6.9 °C 6.2 °C 1019.9 hPa Calm     95 % 0.0 mm
08:22 7.2 °C 6.5 °C 1019.9 hPa Calm     95 % 0.0 mm
08:32 7.3 °C 6.6 °C 1020.2 hPa Calm     95 % 0.0 mm
08:42 7.8 °C 7.0 °C 1020.2 hPa Calm     95 % 0.0 mm
08:52 8.4 °C 7.6 °C 1020.2 hPa Calm     95 % 0.0 mm
08:57 8.7 °C 7.9 °C 1020.2 hPa Calm     95 % 0.0 mm
09:02 8.9 °C 8.1 °C 1020.2 hPa Calm     95 % 0.0 mm
09:12 9.5 °C 8.6 °C 1020.2 hPa Calm     94 % 0.0 mm
09:17 9.6 °C 8.5 °C 1020.2 hPa Calm     93 % 0.0 mm
09:22 9.8 °C 8.4 °C 1020.2 hPa Calm     91 % 0.0 mm
09:32 10.3 °C 8.6 °C 1019.9 hPa Calm     89 % 0.0 mm
09:42 10.8 °C 8.9 °C 1019.9 hPa SE 3.2 km/h   88 % 0.0 mm
09:47 11.0 °C 8.9 °C 1019.9 hPa Calm   6.4 km/h 87 % 0.0 mm
09:52 11.3 °C 9.2 °C 1020.2 hPa SE 1.6 km/h 6.4 km/h 87 % 0.0 mm
10:02 11.6 °C 9.2 °C 1020.2 hPa Calm   6.4 km/h 85 % 0.0 mm
10:12 12.1 °C 9.5 °C 1020.2 hPa Calm   8.0 km/h 84 % 0.0 mm
10:17 12.3 °C 9.3 °C 1020.2 hPa Calm   6.4 km/h 82 % 0.0 mm
10:22 12.3 °C 9.1 °C 1020.2 hPa Calm   6.4 km/h 81 % 0.0 mm
10:32 12.7 °C 9.9 °C 1020.2 hPa ESE 1.6 km/h 9.7 km/h 83 % 0.0 mm
10:42 13.5 °C 10.3 °C 1019.9 hPa ENE 1.6 km/h 6.4 km/h 81 % 0.0 mm
10:52 13.8 °C 10.4 °C 1019.9 hPa East 3.2 km/h 8.0 km/h 80 % 0.0 mm
11:02 14.2 °C 10.2 °C 1019.9 hPa SW 1.6 km/h 6.4 km/h 77 % 0.0 mm
11:12 14.6 °C 10.6 °C 1019.9 hPa ESE 1.6 km/h 11.3 km/h 77 % 0.0 mm
11:22 15.1 °C 10.5 °C 1019.9 hPa East 3.2 km/h 9.7 km/h 74 % 0.0 mm
11:32 15.4 °C 10.6 °C 1019.9 hPa South 1.6 km/h 9.7 km/h 73 % 0.0 mm
11:37 15.6 °C 10.8 °C 1019.9 hPa ESE 1.6 km/h 8.0 km/h 73 % 0.0 mm
11:42 15.8 °C 11.0 °C 1019.9 hPa ESE 1.6 km/h 8.0 km/h 73 % 0.0 mm
11:52 16.4 °C 10.7 °C 1019.9 hPa East 3.2 km/h 9.7 km/h 69 % 0.0 mm
12:02 16.6 °C 10.4 °C 1019.9 hPa SE 4.8 km/h 9.7 km/h 67 % 0.0 mm
12:12 17.2 °C 10.3 °C 1019.9 hPa SW 3.2 km/h 12.9 km/h 64 % 0.0 mm
12:17 17.5 °C 10.6 °C 1019.5 hPa SE 6.4 km/h 11.3 km/h 64 % 0.0 mm
12:22 17.7 °C 10.3 °C 1019.5 hPa East 1.6 km/h 11.3 km/h 62 % 0.0 mm
12:32 17.9 °C 10.0 °C 1019.5 hPa Calm   9.7 km/h 60 % 0.0 mm
12:42 18.2 °C 9.5 °C 1019.5 hPa ESE 4.8 km/h 11.3 km/h 57 % 0.0 mm
12:52 18.2 °C 9.5 °C 1019.5 hPa ESE 3.2 km/h 12.9 km/h 57 % 0.0 mm
12:57 18.3 °C 9.4 °C 1019.5 hPa NE 3.2 km/h 14.5 km/h 56 % 0.0 mm
13:02 18.2 °C 9.0 °C 1019.5 hPa SE 4.8 km/h 14.5 km/h 55 % 0.0 mm
13:12 18.1 °C 9.4 °C 1019.5 hPa SE 1.6 km/h 14.5 km/h 57 % 0.0 mm
13:17 18.5 °C 10.1 °C 1019.2 hPa ENE 3.2 km/h 12.9 km/h 58 % 0.0 mm
13:22 18.6 °C 9.6 °C 1019.2 hPa Calm   12.9 km/h 56 % 0.0 mm
13:32 19.0 °C 10.0 °C 1019.2 hPa South 1.6 km/h 12.9 km/h 56 % 0.0 mm
13:42 19.2 °C 9.7 °C 1019.2 hPa Calm   11.3 km/h 54 % 0.0 mm
13:52 19.3 °C 9.2 °C 1019.2 hPa SSW 6.4 km/h 11.3 km/h 52 % 0.0 mm
13:57 19.2 °C 9.7 °C 1019.2 hPa SE 8.0 km/h 16.1 km/h 54 % 0.0 mm
14:02 18.7 °C 9.2 °C 1018.8 hPa ESE 1.6 km/h 16.1 km/h 54 % 0.0 mm
14:12 18.7 °C 8.9 °C 1018.8 hPa ESE 6.4 km/h 12.9 km/h 53 % 0.0 mm
14:17 18.9 °C 10.2 °C 1018.8 hPa SE 4.8 km/h 11.3 km/h 57 % 0.0 mm
14:22 19.4 °C 10.1 °C 1018.8 hPa SSW 1.6 km/h 11.3 km/h 55 % 0.0 mm
14:32 19.6 °C 9.5 °C 1018.8 hPa WSW 4.8 km/h 9.7 km/h 52 % 0.0 mm
14:37 19.6 °C 9.8 °C 1018.8 hPa East 1.6 km/h 11.3 km/h 53 % 0.0 mm
14:42 19.7 °C 9.9 °C 1018.8 hPa SSE 4.8 km/h 11.3 km/h 53 % 0.0 mm
14:52 19.8 °C 9.4 °C 1018.5 hPa Calm   11.3 km/h 51 % 0.0 mm
14:57 20.1 °C 10.2 °C 1018.5 hPa ESE 1.6 km/h 12.9 km/h 53 % 0.0 mm
15:02 20.2 °C 10.3 °C 1018.5 hPa Calm   12.9 km/h 53 % 0.0 mm
15:12 20.2 °C 10.0 °C 1018.5 hPa SE 6.4 km/h 9.7 km/h 52 % 0.0 mm
15:17 20.2 °C 10.0 °C 1018.5 hPa SE 3.2 km/h 9.7 km/h 52 % 0.0 mm
15:22 20.5 °C 10.3 °C 1018.5 hPa SSW 9.7 km/h 9.7 km/h 52 % 0.0 mm
15:27 20.4 °C 8.7 °C 1018.5 hPa SSE 3.2 km/h 12.9 km/h 47 % 0.0 mm
15:32 20.3 °C 8.6 °C 1018.5 hPa SSW 3.2 km/h 12.9 km/h 47 % 0.0 mm
15:42 20.6 °C 8.9 °C 1018.5 hPa WSW 3.2 km/h 9.7 km/h 47 % 0.0 mm
15:52 20.8 °C 8.8 °C 1018.5 hPa Calm   9.7 km/h 46 % 0.0 mm
16:02 20.7 °C 8.3 °C 1018.2 hPa South 1.6 km/h 8.0 km/h 45 % 0.0 mm
16:12 21.2 °C 9.1 °C 1018.2 hPa ESE 1.6 km/h 11.3 km/h 46 % 0.0 mm
16:17 21.0 °C 8.9 °C 1018.2 hPa Calm   8.0 km/h 46 % 0.0 mm
16:22 20.8 °C 9.4 °C 1018.2 hPa Calm   8.0 km/h 48 % 0.0 mm
16:32 20.8 °C 9.7 °C 1018.2 hPa SSE 3.2 km/h 8.0 km/h 49 % 0.0 mm
16:42 21.0 °C 9.3 °C 1018.2 hPa SW 4.8 km/h 9.7 km/h 47 % 0.0 mm
16:47 21.1 °C 9.7 °C 1017.8 hPa Calm   8.0 km/h 48 % 0.0 mm
16:52 21.3 °C 9.8 °C 1017.8 hPa SW 4.8 km/h 8.0 km/h 48 % 0.0 mm
16:57 21.3 °C 9.5 °C 1017.8 hPa Calm   11.3 km/h 47 % 0.0 mm
17:02 21.4 °C 9.3 °C 1017.8 hPa South 3.2 km/h 11.3 km/h 46 % 0.0 mm
17:12 21.4 °C 9.3 °C 1017.8 hPa Calm   9.7 km/h 46 % 0.0 mm
17:17 21.4 °C 9.0 °C 1017.8 hPa South 3.2 km/h 4.8 km/h 45 % 0.0 mm
17:22 21.7 °C 8.9 °C 1017.8 hPa SE 1.6 km/h 4.8 km/h 44 % 0.0 mm
17:32 21.7 °C 8.9 °C 1017.8 hPa Calm   6.4 km/h 44 % 0.0 mm
17:42 21.9 °C 8.8 °C 1017.8 hPa South 3.2 km/h 4.8 km/h 43 % 0.0 mm
17:52 21.7 °C 8.6 °C 1017.8 hPa ESE 1.6 km/h 11.3 km/h 43 % 0.0 mm
17:57 21.7 °C 9.6 °C 1017.8 hPa Calm   11.3 km/h 46 % 0.0 mm
18:02 21.9 °C 9.8 °C 1017.8 hPa Calm   11.3 km/h 46 % 0.0 mm
18:07 21.8 °C 8.0 °C 1018.2 hPa SSW 1.6 km/h 6.4 km/h 41 % 0.0 mm
18:12 21.9 °C 9.1 °C 1018.2 hPa Calm   6.4 km/h 44 % 0.0 mm
18:17 21.7 °C 7.1 °C 1018.2 hPa SSW 4.8 km/h 4.8 km/h 39 % 0.0 mm
18:22 21.4 °C 7.6 °C 1018.2 hPa SW 1.6 km/h 6.4 km/h 41 % 0.0 mm
18:32 21.2 °C 7.4 °C 1018.2 hPa WSW 4.8 km/h 9.7 km/h 41 % 0.0 mm
18:37 21.1 °C 7.7 °C 1018.2 hPa SW 4.8 km/h 9.7 km/h 42 % 0.0 mm
18:42 21.1 °C 7.7 °C 1018.2 hPa SW 1.6 km/h 8.0 km/h 42 % 0.0 mm
18:47 21.1 °C 8.0 °C 1018.5 hPa Calm   6.4 km/h 43 % 0.0 mm
18:52 21.1 °C 8.4 °C 1018.2 hPa Calm   6.4 km/h 44 % 0.0 mm
18:57 21.2 °C 8.8 °C 1018.2 hPa West 1.6 km/h 4.8 km/h 45 % 0.0 mm
19:02 21.2 °C 8.8 °C 1018.5 hPa Calm   4.8 km/h 45 % 0.0 mm
19:12 20.8 °C 10.0 °C 1018.5 hPa Calm   3.2 km/h 50 % 0.0 mm
19:17 20.1 °C 10.8 °C 1018.5 hPa Calm   1.6 km/h 55 % 0.0 mm
19:22 19.4 °C 10.4 °C 1018.5 hPa Calm   1.6 km/h 56 % 0.0 mm
19:32 18.3 °C 10.6 °C 1018.5 hPa Calm   1.6 km/h 61 % 0.0 mm
19:42 17.7 °C 10.6 °C 1018.5 hPa Calm     63 % 0.0 mm
19:52 17.4 °C 10.0 °C 1018.8 hPa Calm     62 % 0.0 mm
19:57 17.2 °C 9.9 °C 1018.8 hPa Calm     62 % 0.0 mm
20:02 16.9 °C 9.8 °C 1018.8 hPa Calm     63 % 0.0 mm
20:12 16.3 °C 9.7 °C 1018.8 hPa Calm     65 % 0.0 mm
20:17 16.2 °C 10.3 °C 1018.8 hPa Calm     68 % 0.0 mm
20:22 16.0 °C 9.7 °C 1018.8 hPa Calm     66 % 0.0 mm
20:32 15.8 °C 10.6 °C 1019.2 hPa Calm     71 % 0.0 mm
20:42 15.3 °C 10.7 °C 1019.2 hPa Calm     74 % 0.0 mm
20:47 15.2 °C 10.8 °C 1019.2 hPa Calm     75 % 0.0 mm
20:57 15.1 °C 10.9 °C 1019.2 hPa Calm     76 % 0.0 mm
21:07 14.4 °C 10.6 °C 1019.5 hPa Calm     78 % 0.0 mm
21:12 14.0 °C 10.8 °C 1019.5 hPa WNW 3.2 km/h   81 % 0.0 mm
21:17 13.7 °C 10.7 °C 1019.5 hPa Calm   3.2 km/h 82 % 0.0 mm
21:27 13.5 °C 10.7 °C 1019.5 hPa Calm   3.2 km/h 83 % 0.0 mm
21:32 13.4 °C 10.6 °C 1019.5 hPa WNW 1.6 km/h 3.2 km/h 83 % 0.0 mm
21:37 13.2 °C 10.4 °C 1019.5 hPa Calm   1.6 km/h 83 % 0.0 mm
21:42 13.2 °C 10.4 °C 1019.5 hPa Calm   1.6 km/h 83 % 0.0 mm
21:47 13.1 °C 10.3 °C 1019.5 hPa Calm   1.6 km/h 83 % 0.0 mm
21:57 12.8 °C 10.2 °C 1019.9 hPa Calm   1.6 km/h 84 % 0.0 mm
22:02 12.7 °C 10.2 °C 1019.5 hPa Calm   1.6 km/h 85 % 0.0 mm
22:12 12.7 °C 10.2 °C 1019.5 hPa Calm   1.6 km/h 85 % 0.0 mm
22:22 12.6 °C 10.1 °C 1019.9 hPa Calm   1.6 km/h 85 % 0.0 mm
22:32 12.4 °C 9.9 °C 1019.9 hPa Calm   1.6 km/h 85 % 0.0 mm
22:37 12.2 °C 9.9 °C 1019.9 hPa Calm   1.6 km/h 86 % 0.0 mm
22:47 12.1 °C 10.2 °C 1019.9 hPa Calm   1.6 km/h 88 % 0.0 mm
22:52 12.2 °C 10.1 °C 1019.9 hPa Calm   1.6 km/h 87 % 0.0 mm
22:57 12.1 °C 10.0 °C 1019.9 hPa Calm   1.6 km/h 87 % 0.0 mm
23:02 11.9 °C 9.8 °C 1019.9 hPa Calm   1.6 km/h 87 % 0.0 mm
23:12 11.5 °C 9.6 °C 1019.9 hPa Calm     88 % 0.0 mm
23:17 11.4 °C 9.7 °C 1019.9 hPa Calm     89 % 0.0 mm
23:22 11.4 °C 9.7 °C 1019.9 hPa Calm     89 % 0.0 mm
23:32 11.4 °C 9.7 °C 1019.9 hPa Calm     89 % 0.0 mm
23:42 11.2 °C 9.5 °C 1019.9 hPa Calm     89 % 0.0 mm
23:47 11.2 °C 9.6 °C 1019.9 hPa Calm     90 % 0.0 mm
23:52 11.2 °C 9.6 °C 1019.9 hPa Calm     90 % 0.0 mm
Meteo18
Compliments of Weather Underground - 4 mb

Script developed by  Jim McMurry - jmcmurry@mwt.net Adapted for the template by  Wim van der Kuil - Leuven-Template.eu

You find our weather info also at:

European Weather Network

Weather Underground

Equipment we use:

Weather-station
Davis Vue

Weather-program
Meteohub

Weather-server
Raspberry PI 2 B+

Provider
1 and 1

Davis Vue

Meteohub

Raspberry PI 2 B+

1 and 1